EKPBEKAH

Guest
Details From EKPB - Krusa Padborg
To EKAH - Aarhus
Flight Number -
Tags generated
Created
Modified
Stats Distance 97 nm / 180 km
Max Altitude 9,200 ft / 2,804 m
Waypoints 3
Social Downloads 1
Likes 0
Share VATSIM

Download

Looking for another format? Having issues loading an existing format? Contact us
Advertisement - Login to hide

Notes

Basic altitude profile: - Ascent Rate: 2500ft/min - Ascent Speed: 250kts - Cruise Altitude: 35000ft - Cruise Speed: 420kts - Descent Rate: 1500ft/min - Descent Speed: 250kts Options: - Use NATs: yes - Use PACOTS: yes - Use low airways: yes - Use high airways: no

Route

EKPB RIDSI EKAH

ID Type Via Altitude Latitude Longitude Leg Dist Tot Dist Heading (true) Name
O EKPB APT - 0 ft / 0 m 54.87031˚ 9.27902˚ - 0 nm - Krusa Padborg
RIDSI FIX - 9,200 ft / 2,804 m 55.59167˚ 9.99417˚ 49 nm 49 nm 29° / 30° -
O EKAH APT - 0 ft / 0 m 56.30426˚ 10.61945˚ 47 nm 97 nm 26° / 26° Aarhus

Altitude Profile

Advertisement - Login to hide

EKPB

Details ICAO EKPB
Name Krusa Padborg
Region Denmark / Faroe Islands
Timezone Europe/Copenhagen (UTC+2.0)
Stats Elevation 88 ft / 27 m (AMSL)
Location 54.870307° 9.279016°
Runways 1
Magnetic Variation 2.627° E

METAR

Not found

TAF

Not found

Departure Runways

ID Width Length Bearing (true) Bearing (mag) Surface Threshold Offset Overrun Length
05 98 ft / 30 m 3,517 ft / 1,072 m 45.57° 42.94° Asphalt 184 ft / 56 m 0 ft / 0 m
23 98 ft / 30 m 3,517 ft / 1,072 m 225.57° 222.94° Asphalt 0 ft / 0 m 0 ft / 0 m

EKAH

Details ICAO EKAH (AAR)
Name Aarhus
Region Denmark / Faroe Islands
Timezone Europe/Copenhagen (UTC+2.0)
Stats Elevation 82 ft / 25 m (AMSL)
Location 56.304265° 10.619452°
Runways 2
Magnetic Variation 3.117° E

METAR

EKAH 211920Z AUTO 08003KT 9999NDV NCD 16/10 Q1022

Decode

TAF

TAF EKAH 211651Z 2118/2218 11010KT CAVOK= TAF EKBI 211651Z 2118/2218 10010KT CAVOK

Decode

Destination Runways

ID Width Length Bearing (true) Bearing (mag) Surface Threshold Offset Overrun Length
10L 75 ft / 23 m 9,081 ft / 2,768 m 100.30° 97.18° Asphalt 0 ft / 0 m 0 ft / 0 m
10R 148 ft / 45 m 8,837 ft / 2,693 m 100.29° 97.17° Asphalt 0 ft / 0 m 902 ft / 275 m
28L 148 ft / 45 m 8,837 ft / 2,693 m 280.33° 277.21° Asphalt 0 ft / 0 m 738 ft / 225 m
28R 75 ft / 23 m 9,081 ft / 2,768 m 280.34° 277.22° Asphalt 0 ft / 0 m 0 ft / 0 m

Approach Navaids

Runway Type Ident Frequency Range Bearing (true) Bearing (mag) Slope Elevation
10R Localiser AAR 111.90 MHz 18 nm / 33 km 100.33° 97.21° - 82 ft / 25 m (AMSL)
10R Glidescope AAR 111.90 MHz 10 nm / 19 km 100.31° 97.19° 2.75° 82 ft / 25 m (AMSL)
28L Localiser TR 111.10 MHz 18 nm / 33 km 280.29° 277.17° - 82 ft / 25 m (AMSL)
28L Glidescope TR 111.10 MHz 10 nm / 19 km 280.31° 277.19° 2.75° 82 ft / 25 m (AMSL)
28L DME TR 111.10 MHz 18 nm / 33 km - - - 79 ft / 24 m (AMSL)